Time,TemperatureF,DewpointF,PressureIn,WindDirection,WindDirectionDegrees,WindSpeedMPH,WindSpeedGustMPH,Humidity,HourlyPrecipIn,Conditions,Clouds,dailyrainin,SoftwareType,DateUTC
2013-06-13 00:08:00,77.9,70.0,29.79,ENE,66,0.0,0.0,77,0.00,,,0.00,weatherlink.com 1.10,2013-06-13 04:08:00,
2013-06-13 00:23:00,77.5,70.0,29.79,ENE,66,0.0,1.0,77,0.00,,,0.00,weatherlink.com 1.10,2013-06-13 04:23:00,
2013-06-13 00:38:00,77.2,70.0,29.78,ENE,66,0.0,0.0,79,0.00,,,0.00,weatherlink.com 1.10,2013-06-13 04:38:00,
2013-06-13 00:53:00,77.0,70.0,29.77,ENE,66,0.0,0.0,78,0.00,,,0.00,weatherlink.com 1.10,2013-06-13 04:53:00,
2013-06-13 01:09:00,76.7,70.0,29.78,ENE,66,0.0,0.0,80,0.00,,,0.00,weatherlink.com 1.10,2013-06-13 05:09:00,
2013-06-13 01:24:00,76.3,70.0,29.77,ENE,66,0.0,0.0,81,0.00,,,0.00,weatherlink.com 1.10,2013-06-13 05:24:00,
2013-06-13 01:39:00,75.8,70.0,29.77,ENE,67,1.0,1.0,81,0.00,,,0.00,weatherlink.com 1.10,2013-06-13 05:39:00,
2013-06-13 01:54:00,76.0,69.0,29.77,ENE,67,0.0,1.0,80,0.00,,,0.00,weatherlink.com 1.10,2013-06-13 05:54:00,
2013-06-13 02:09:00,76.1,70.0,29.77,East,90,0.0,1.0,80,0.00,,,0.00,weatherlink.com 1.10,2013-06-13 06:09:00,
2013-06-13 02:24:00,75.8,70.0,29.76,East,90,0.0,0.0,81,0.00,,,0.00,weatherlink.com 1.10,2013-06-13 06:24:00,
2013-06-13 02:39:00,75.6,70.0,29.76,East,90,0.0,0.0,82,0.00,,,0.00,weatherlink.com 1.10,2013-06-13 06:39:00,
2013-06-13 02:54:00,75.4,70.0,29.76,East,90,0.0,0.0,82,0.00,,,0.00,weatherlink.com 1.10,2013-06-13 06:54:00,
2013-06-13 03:09:00,75.3,70.0,29.74,East,90,0.0,0.0,83,0.00,,,0.00,weatherlink.com 1.10,2013-06-13 07:09:00,
2013-06-13 03:24:00,75.2,70.0,29.73,East,90,0.0,0.0,83,0.00,,,0.00,weatherlink.com 1.10,2013-06-13 07:24:00,
2013-06-13 03:39:00,75.0,70.0,29.73,East,90,0.0,0.0,85,0.00,,,0.00,weatherlink.com 1.10,2013-06-13 07:39:00,
2013-06-13 03:54:00,74.8,70.0,29.73,East,90,0.0,0.0,85,0.00,,,0.00,weatherlink.com 1.10,2013-06-13 07:54:00,
2013-06-13 04:09:00,74.7,70.0,29.72,East,90,0.0,0.0,85,0.00,,,0.00,weatherlink.com 1.10,2013-06-13 08:09:00,
2013-06-13 04:24:00,74.4,70.0,29.71,East,90,0.0,0.0,85,0.00,,,0.00,weatherlink.com 1.10,2013-06-13 08:24:00,
2013-06-13 04:39:00,74.1,69.0,29.70,East,81,2.0,2.0,85,0.00,,,0.00,weatherlink.com 1.10,2013-06-13 08:39:00,
2013-06-13 04:54:00,74.0,69.0,29.69,East,99,0.0,2.0,84,0.00,,,0.00,weatherlink.com 1.10,2013-06-13 08:54:00,
2013-06-13 05:09:00,73.7,69.0,29.68,ENE,70,0.0,2.0,84,0.00,,,0.00,weatherlink.com 1.10,2013-06-13 09:09:00,
2013-06-13 05:24:00,73.4,69.0,29.69,ENE,70,0.0,1.0,85,0.00,,,0.00,weatherlink.com 1.10,2013-06-13 09:24:00,
2013-06-13 05:39:00,73.1,69.0,29.69,ENE,70,0.0,1.0,87,0.00,,,0.00,weatherlink.com 1.10,2013-06-13 09:39:00,
2013-06-13 05:54:00,73.1,69.0,29.68,ENE,70,0.0,0.0,87,0.00,,,0.00,weatherlink.com 1.10,2013-06-13 09:54:00,
2013-06-13 06:09:00,73.0,69.0,29.67,ENE,70,0.0,0.0,88,0.00,,,0.00,weatherlink.com 1.10,2013-06-13 10:09:00,
2013-06-13 06:24:00,73.1,70.0,29.67,ENE,70,0.0,0.0,89,0.00,,,0.00,weatherlink.com 1.10,2013-06-13 10:24:00,
2013-06-13 06:39:00,73.3,70.0,29.66,ENE,70,0.0,0.0,89,0.00,,,0.00,weatherlink.com 1.10,2013-06-13 10:39:00,
2013-06-13 06:54:00,73.7,71.0,29.66,ENE,70,0.0,0.0,90,0.00,,,0.00,weatherlink.com 1.10,2013-06-13 10:54:00,
2013-06-13 07:09:00,74.2,72.0,29.65,ENE,70,0.0,0.0,91,0.00,,,0.00,weatherlink.com 1.10,2013-06-13 11:09:00,
2013-06-13 07:24:00,74.8,72.0,29.65,ENE,70,1.0,1.0,90,0.00,,,0.00,weatherlink.com 1.10,2013-06-13 11:24:00,
2013-06-13 07:39:00,74.9,72.0,29.64,East,84,0.0,2.0,90,0.00,,,0.00,weatherlink.com 1.10,2013-06-13 11:39:00,
2013-06-13 07:54:00,75.3,72.0,29.63,East,84,0.0,1.0,90,0.00,,,0.00,weatherlink.com 1.10,2013-06-13 11:54:00,
2013-06-13 08:09:00,76.2,73.0,29.63,East,84,0.0,0.0,90,0.00,,,0.00,weatherlink.com 1.10,2013-06-13 12:09:00,
2013-06-13 08:24:00,77.3,74.0,29.63,ENE,71,1.0,1.0,89,0.00,,,0.00,weatherlink.com 1.10,2013-06-13 12:24:00,
2013-06-13 08:39:00,78.7,74.0,29.63,NNW,333,1.0,2.0,86,0.00,,,0.00,weatherlink.com 1.10,2013-06-13 12:39:00,
2013-06-13 08:54:00,79.8,74.0,29.64,NW,310,0.0,5.0,83,0.00,,,0.00,weatherlink.com 1.10,2013-06-13 12:54:00,
2013-06-13 09:09:00,79.2,72.0,29.68,WNW,286,2.0,11.0,78,0.00,,,0.00,weatherlink.com 1.10,2013-06-13 13:09:00,
2013-06-13 09:25:00,78.3,69.0,29.67,WNW,286,6.0,13.0,72,0.00,,,0.00,weatherlink.com 1.10,2013-06-13 13:25:00,
2013-06-13 09:40:00,75.4,67.0,29.66,West,281,2.0,11.0,76,0.00,,,0.00,weatherlink.com 1.10,2013-06-13 13:40:00,
2013-06-13 09:55:00,74.1,68.0,29.64,NW,306,2.0,5.0,80,0.00,,,0.00,weatherlink.com 1.10,2013-06-13 13:55:00,
2013-06-13 10:10:00,75.4,68.0,29.65,NNW,342,1.0,7.0,78,0.00,,,0.00,weatherlink.com 1.10,2013-06-13 14:10:00,
2013-06-13 10:25:00,76.8,68.0,29.63,NNW,347,1.0,5.0,74,0.00,,,0.00,weatherlink.com 1.10,2013-06-13 14:25:00,
2013-06-13 10:40:00,79.1,68.0,29.62,NW,317,4.0,5.0,69,0.00,,,0.00,weatherlink.com 1.10,2013-06-13 14:40:00,
2013-06-13 10:55:00,79.8,67.0,29.60,SW,219,0.0,6.0,66,0.00,,,0.00,weatherlink.com 1.10,2013-06-13 14:55:00,
2013-06-13 11:10:00,79.9,66.0,29.58,SW,220,0.0,8.0,62,0.00,,,0.00,weatherlink.com 1.10,2013-06-13 15:10:00,
2013-06-13 11:25:00,79.4,67.0,29.55,SSW,194,2.0,9.0,65,0.00,,,0.00,weatherlink.com 1.10,2013-06-13 15:25:00,
2013-06-13 11:40:00,79.5,66.0,29.56,WNW,300,3.0,4.0,63,0.00,,,0.00,weatherlink.com 1.10,2013-06-13 15:40:00,
2013-06-13 11:55:00,80.2,67.0,29.55,NW,324,1.0,2.0,65,0.00,,,0.00,weatherlink.com 1.10,2013-06-13 15:55:00,
2013-06-13 12:10:00,80.5,68.0,29.54,WSW,243,0.0,4.0,65,0.00,,,0.00,weatherlink.com 1.10,2013-06-13 16:10:00,
2013-06-13 12:25:00,80.7,67.0,29.55,West,276,0.0,5.0,64,0.00,,,0.00,weatherlink.com 1.10,2013-06-13 16:25:00,
2013-06-13 12:40:00,82.3,67.0,29.55,SSW,201,0.0,8.0,60,0.00,,,0.00,weatherlink.com 1.10,2013-06-13 16:40:00,
2013-06-13 12:55:00,83.1,68.0,29.54,WSW,245,1.0,5.0,60,0.00,,,0.00,weatherlink.com 1.10,2013-06-13 16:55:00,
2013-06-13 13:10:00,84.4,67.0,29.54,SW,215,2.0,6.0,57,0.00,,,0.00,weatherlink.com 1.10,2013-06-13 17:10:00,
2013-06-13 13:25:00,83.6,67.0,29.54,WSW,239,1.0,5.0,57,0.00,,,0.00,weatherlink.com 1.10,2013-06-13 17:25:00,
2013-06-13 13:40:00,85.2,69.0,29.53,NNW,347,0.0,8.0,58,0.00,,,0.00,weatherlink.com 1.10,2013-06-13 17:40:00,
2013-06-13 13:55:00,87.3,69.0,29.51,SSW,205,0.0,6.0,55,0.00,,,0.00,weatherlink.com 1.10,2013-06-13 17:55:00,
2013-06-13 14:10:00,87.4,69.0,29.51,WSW,247,0.0,6.0,55,0.00,,,0.00,weatherlink.com 1.10,2013-06-13 18:10:00,
2013-06-13 14:25:00,88.4,69.0,29.50,SSW,197,1.0,6.0,52,0.00,,,0.00,weatherlink.com 1.10,2013-06-13 18:25:00,
2013-06-13 14:40:00,88.3,69.0,29.50,South,189,3.0,6.0,53,0.00,,,0.00,weatherlink.com 1.10,2013-06-13 18:40:00,
2013-06-13 14:55:00,88.5,69.0,29.49,NW,314,4.0,9.0,52,0.00,,,0.00,weatherlink.com 1.10,2013-06-13 18:55:00,
2013-06-13 15:10:00,87.7,68.0,29.48,SW,223,0.0,8.0,52,0.00,,,0.00,weatherlink.com 1.10,2013-06-13 19:10:00,
2013-06-13 15:25:00,86.6,69.0,29.48,South,170,0.0,5.0,55,0.00,,,0.00,weatherlink.com 1.10,2013-06-13 19:25:00,
2013-06-13 15:40:00,85.6,69.0,29.47,NNW,328,0.0,4.0,58,0.00,,,0.00,weatherlink.com 1.10,2013-06-13 19:40:00,
2013-06-13 15:55:00,84.9,69.0,29.46,West,268,1.0,2.0,60,0.00,,,0.00,weatherlink.com 1.10,2013-06-13 19:55:00,
2013-06-13 16:10:00,82.1,69.0,29.48,NW,305,8.0,10.0,65,0.00,,,0.00,weatherlink.com 1.10,2013-06-13 20:10:00,
2013-06-13 16:25:00,75.2,68.0,29.49,North,354,3.0,10.0,79,0.00,,,0.00,weatherlink.com 1.10,2013-06-13 20:25:00,
2013-06-13 16:40:00,76.4,68.0,29.49,West,281,1.0,7.0,76,0.00,,,0.00,weatherlink.com 1.10,2013-06-13 20:40:00,
2013-06-13 16:55:00,76.9,67.0,29.50,NW,324,0.0,8.0,72,0.00,,,0.00,weatherlink.com 1.10,2013-06-13 20:55:00,
2013-06-13 17:10:00,76.6,67.0,29.50,NW,316,1.0,3.0,73,0.00,,,0.00,weatherlink.com 1.10,2013-06-13 21:10:00,
2013-06-13 17:25:00,76.8,67.0,29.50,WSW,246,4.0,7.0,71,0.00,,,0.00,weatherlink.com 1.10,2013-06-13 21:25:00,
2013-06-13 17:40:00,76.9,66.0,29.50,NW,317,0.0,6.0,70,0.00,,,0.00,weatherlink.com 1.10,2013-06-13 21:40:00,
2013-06-13 17:55:00,77.0,67.0,29.49,NW,310,2.0,3.0,71,0.00,,,0.00,weatherlink.com 1.10,2013-06-13 21:55:00,
2013-06-13 18:10:00,77.1,67.0,29.49,NNW,340,2.0,6.0,70,0.00,,,0.00,weatherlink.com 1.10,2013-06-13 22:10:00,
2013-06-13 18:25:00,77.4,66.0,29.50,North,350,0.0,9.0,69,0.00,,,0.00,weatherlink.com 1.10,2013-06-13 22:25:00,
2013-06-13 18:40:00,77.7,66.0,29.50,WNW,292,2.0,9.0,67,0.00,,,0.00,weatherlink.com 1.10,2013-06-13 22:40:00,
2013-06-13 18:55:00,78.2,66.0,29.50,NW,305,1.0,9.0,66,0.00,,,0.00,weatherlink.com 1.10,2013-06-13 22:55:00,
2013-06-13 19:10:00,77.7,65.0,29.51,WNW,294,4.0,8.0,66,0.00,,,0.00,weatherlink.com 1.10,2013-06-13 23:10:00,
2013-06-13 19:25:00,77.0,66.0,29.52,NW,315,1.0,9.0,69,0.00,,,0.00,weatherlink.com 1.10,2013-06-13 23:25:00,
2013-06-13 19:40:00,75.7,66.0,29.51,WNW,292,5.0,7.0,72,0.00,,,0.00,weatherlink.com 1.10,2013-06-13 23:40:00,
2013-06-13 19:55:00,76.1,66.0,29.51,NW,310,1.0,9.0,71,0.00,,,0.00,weatherlink.com 1.10,2013-06-13 23:55:00,
2013-06-13 20:10:00,76.1,65.0,29.52,West,281,5.0,10.0,69,0.00,,,0.00,weatherlink.com 1.10,2013-06-14 00:10:00,
2013-06-13 20:25:00,75.5,65.0,29.53,West,281,5.0,10.0,69,0.00,,,0.00,weatherlink.com 1.10,2013-06-14 00:25:00,
2013-06-13 20:40:00,75.0,63.0,29.55,NW,319,6.0,10.0,67,0.00,,,0.00,weatherlink.com 1.10,2013-06-14 00:40:00,
2013-06-13 20:56:00,74.1,60.0,29.55,West,265,1.0,11.0,62,0.00,,,0.00,weatherlink.com 1.10,2013-06-14 00:56:00,
2013-06-13 21:11:00,73.6,60.0,29.55,West,263,8.0,12.0,63,0.00,,,0.00,weatherlink.com 1.10,2013-06-14 01:11:00,
2013-06-13 21:26:00,73.0,60.0,29.56,North,4,6.0,12.0,64,0.00,,,0.00,weatherlink.com 1.10,2013-06-14 01:26:00,
2013-06-13 21:41:00,72.4,60.0,29.57,West,269,4.0,9.0,65,0.00,,,0.00,weatherlink.com 1.10,2013-06-14 01:41:00,
2013-06-13 21:56:00,71.9,61.0,29.57,NNE,29,1.0,6.0,68,0.00,,,0.00,weatherlink.com 1.10,2013-06-14 01:56:00,
2013-06-13 22:11:00,71.5,60.0,29.57,WNW,286,2.0,10.0,67,0.00,,,0.00,weatherlink.com 1.10,2013-06-14 02:11:00,
2013-06-13 22:26:00,71.3,60.0,29.57,WNW,291,5.0,8.0,68,0.00,,,0.00,weatherlink.com 1.10,2013-06-14 02:26:00,
2013-06-13 22:41:00,71.0,60.0,29.58,West,271,4.0,9.0,68,0.00,,,0.00,weatherlink.com 1.10,2013-06-14 02:41:00,
2013-06-13 22:56:00,70.8,59.0,29.58,West,271,0.0,7.0,67,0.00,,,0.00,weatherlink.com 1.10,2013-06-14 02:56:00,
2013-06-13 23:11:00,70.6,59.0,29.59,NW,323,1.0,8.0,67,0.00,,,0.00,weatherlink.com 1.10,2013-06-14 03:11:00,
2013-06-13 23:26:00,70.5,59.0,29.59,WNW,298,2.0,9.0,66,0.00,,,0.00,weatherlink.com 1.10,2013-06-14 03:26:00,
2013-06-13 23:41:00,70.6,58.0,29.59,SSE,160,1.0,6.0,64,0.00,,,0.00,weatherlink.com 1.10,2013-06-14 03:41:00,
2013-06-13 23:56:00,70.8,57.0,29.60,West,261,8.0,8.0,62,0.00,,,0.00,weatherlink.com 1.10,2013-06-14 03:56:00,